createdAt,value
2019-03-18T00:00:18.233Z,1.00
2019-03-18T00:02:45.339Z,0.80
2019-03-18T00:05:12.441Z,1.53
2019-03-18T00:07:39.583Z,0.80
2019-03-18T00:10:06.908Z,0.70
2019-03-18T00:12:34.064Z,1.23
2019-03-18T00:15:02.265Z,0.80
2019-03-18T00:17:28.289Z,1.27
2019-03-18T00:19:55.389Z,1.17
2019-03-18T00:22:22.489Z,1.73
2019-03-18T00:24:49.573Z,0.97
2019-03-18T00:27:16.667Z,1.37
2019-03-18T00:29:43.781Z,1.30
2019-03-18T00:32:10.863Z,0.70
2019-03-18T00:34:37.973Z,0.90
2019-03-18T00:37:05.088Z,1.67
2019-03-18T00:39:32.230Z,1.50
2019-03-18T00:41:59.319Z,0.80
2019-03-18T00:44:26.400Z,0.80
2019-03-18T00:46:53.498Z,0.47
2019-03-18T00:49:20.597Z,1.00
2019-03-18T00:51:47.687Z,0.97
2019-03-18T00:54:14.780Z,0.73
2019-03-18T00:56:41.899Z,1.93
2019-03-18T00:59:09.002Z,0.83
2019-03-18T01:01:36.121Z,1.00
2019-03-18T01:04:03.352Z,1.90
2019-03-18T01:06:30.464Z,0.60
2019-03-18T01:08:57.521Z,1.73
2019-03-18T01:11:24.652Z,1.03
2019-03-18T01:13:51.769Z,0.90
2019-03-18T01:16:18.866Z,1.60
2019-03-18T01:18:45.961Z,0.70
2019-03-18T01:21:13.087Z,1.10
2019-03-18T01:23:40.232Z,0.73
2019-03-18T01:26:07.346Z,1.07
2019-03-18T01:28:34.464Z,2.17
2019-03-18T01:31:01.554Z,0.60
2019-03-18T01:33:28.670Z,1.07
2019-03-18T01:35:55.795Z,0.97
2019-03-18T01:38:22.894Z,1.37
2019-03-18T01:40:49.991Z,1.37
2019-03-18T01:43:17.108Z,1.50
2019-03-18T01:45:44.220Z,1.27
2019-03-18T01:48:11.312Z,1.67
2019-03-18T01:50:38.484Z,2.60
2019-03-18T01:53:05.597Z,1.27
2019-03-18T01:55:32.697Z,0.93
2019-03-18T01:57:59.809Z,1.47
2019-03-18T02:00:26.903Z,1.20
2019-03-18T02:02:54.093Z,1.00
2019-03-18T02:05:21.165Z,0.80
2019-03-18T02:07:48.268Z,0.60
2019-03-18T02:10:15.360Z,1.33
2019-03-18T02:12:42.502Z,1.10
2019-03-18T02:15:09.613Z,0.80
2019-03-18T02:17:36.733Z,1.00
2019-03-18T02:20:04.264Z,0.33
2019-03-18T02:22:31.369Z,1.00
2019-03-18T02:24:58.473Z,1.17
2019-03-18T02:27:25.581Z,1.67
2019-03-18T02:29:52.677Z,0.80
2019-03-18T02:32:19.778Z,0.97
2019-03-18T02:34:46.884Z,0.33
2019-03-18T02:37:13.997Z,1.33
2019-03-18T02:39:41.244Z,2.50
2019-03-18T02:42:08.306Z,2.03
2019-03-18T02:44:35.396Z,1.10
2019-03-18T02:47:02.502Z,0.63
2019-03-18T02:49:29.577Z,0.70
2019-03-18T02:51:56.695Z,0.57
2019-03-18T02:54:23.808Z,1.03
2019-03-18T02:56:50.962Z,0.70
2019-03-18T02:59:18.037Z,1.57
2019-03-18T03:01:45.165Z,0.87
2019-03-18T03:04:12.289Z,0.93
2019-03-18T03:06:39.410Z,0.77
2019-03-18T03:09:06.542Z,0.80
2019-03-18T03:11:34.481Z,1.23
2019-03-18T03:14:00.803Z,0.43
2019-03-18T03:16:27.932Z,0.67
2019-03-18T03:18:55.074Z,0.90
2019-03-18T03:21:22.185Z,0.83
2019-03-18T03:23:49.301Z,0.40
2019-03-18T03:26:16.410Z,0.20
2019-03-18T03:28:43.508Z,1.13
2019-03-18T03:31:10.916Z,1.07
2019-03-18T03:33:38.051Z,1.07
2019-03-18T03:36:05.166Z,0.30
2019-03-18T03:38:32.252Z,1.40
2019-03-18T03:40:59.348Z,0.90
2019-03-18T03:43:26.454Z,0.77
2019-03-18T03:45:53.557Z,0.93
2019-03-18T03:48:20.662Z,0.93
2019-03-18T03:50:47.775Z,0.60
2019-03-18T03:53:14.878Z,0.77
2019-03-18T03:55:42.082Z,0.43
2019-03-18T03:58:09.213Z,1.43
2019-03-18T04:00:36.321Z,0.70
2019-03-18T04:03:03.476Z,1.23
2019-03-18T04:05:30.586Z,0.40
2019-03-18T04:07:57.672Z,1.20
2019-03-18T04:10:24.796Z,1.23
2019-03-18T04:12:51.892Z,0.57
2019-03-18T04:15:19.025Z,0.47
2019-03-18T04:17:46.123Z,1.13
2019-03-18T04:20:13.245Z,0.83
2019-03-18T04:22:40.352Z,0.77
2019-03-18T04:25:07.475Z,1.33
2019-03-18T04:27:34.578Z,0.80
2019-03-18T04:30:01.694Z,0.80
2019-03-18T04:32:28.794Z,0.47
2019-03-18T04:34:55.885Z,0.67
2019-03-18T04:37:22.968Z,1.00
2019-03-18T04:39:50.086Z,0.50
2019-03-18T04:42:17.224Z,1.17
2019-03-18T04:44:44.312Z,0.43
2019-03-18T04:47:14.528Z,1.37
2019-03-18T04:49:38.542Z,1.73
2019-03-18T04:52:05.635Z,1.47
2019-03-18T04:54:32.720Z,1.23
2019-03-18T04:56:59.838Z,1.23
2019-03-18T04:59:26.928Z,0.57
2019-03-18T05:01:54.024Z,0.77
2019-03-18T05:04:21.106Z,0.83
2019-03-18T05:06:48.192Z,1.03
2019-03-18T05:09:15.315Z,0.90
2019-03-18T05:11:42.406Z,1.17
2019-03-18T05:14:09.773Z,0.70
2019-03-18T05:16:36.889Z,0.53
2019-03-18T05:19:04.006Z,0.87
2019-03-18T05:21:31.108Z,2.20
2019-03-18T05:23:58.220Z,0.60
2019-03-18T05:26:25.320Z,2.13
2019-03-18T05:28:52.404Z,1.37
2019-03-18T05:31:19.516Z,1.30
2019-03-18T05:33:46.600Z,1.07
2019-03-18T05:36:13.680Z,0.40
2019-03-18T05:38:40.782Z,0.40
2019-03-18T05:41:08.026Z,0.57
2019-03-18T05:43:35.057Z,1.70
2019-03-18T05:46:02.212Z,2.33
2019-03-18T05:48:29.325Z,1.30
2019-03-18T05:50:56.397Z,1.63
2019-03-18T05:53:23.512Z,1.10
2019-03-18T05:55:50.618Z,0.93
2019-03-18T05:58:17.704Z,1.30
2019-03-18T06:00:44.797Z,0.40
2019-03-18T06:03:11.890Z,0.87
2019-03-18T06:05:38.982Z,0.90
2019-03-18T06:08:06.083Z,0.90
2019-03-18T06:10:33.198Z,1.43
2019-03-18T06:13:00.318Z,0.70
2019-03-18T06:15:27.420Z,1.53
2019-03-18T06:17:54.514Z,1.17
2019-03-18T06:20:21.605Z,0.93
2019-03-18T06:22:48.692Z,0.33
2019-03-18T06:25:15.818Z,1.13
2019-03-18T06:27:42.924Z,1.73
2019-03-18T06:30:10.055Z,2.37
2019-03-18T06:32:37.165Z,1.80
2019-03-18T06:35:04.284Z,0.93
2019-03-18T06:37:31.401Z,1.50
2019-03-18T06:39:58.534Z,0.33
2019-03-18T06:42:25.652Z,1.90
2019-03-18T06:44:52.850Z,1.50
2019-03-18T06:47:19.972Z,1.80
2019-03-18T06:49:47.067Z,0.93
2019-03-18T06:52:14.196Z,2.57
2019-03-18T06:54:41.331Z,0.70
2019-03-18T06:57:08.420Z,1.70
2019-03-18T06:59:35.521Z,1.10
2019-03-18T07:02:02.628Z,1.10
2019-03-18T07:04:29.737Z,1.63
2019-03-18T07:06:56.838Z,1.03
2019-03-18T07:09:23.951Z,0.30
2019-03-18T07:11:51.033Z,1.33
2019-03-18T07:14:18.137Z,1.63
2019-03-18T07:16:45.270Z,0.70
2019-03-18T07:19:12.381Z,1.93
2019-03-18T07:21:39.493Z,1.17
2019-03-18T07:24:06.585Z,0.90
2019-03-18T07:26:33.709Z,1.20
2019-03-18T07:29:00.796Z,0.77
2019-03-18T07:31:27.897Z,0.93
2019-03-18T07:33:55.011Z,1.83
2019-03-18T07:36:22.113Z,1.00
2019-03-18T07:38:49.197Z,1.93
2019-03-18T07:41:16.296Z,0.70
2019-03-18T07:43:43.392Z,0.50
2019-03-18T07:46:10.510Z,0.97
2019-03-18T07:48:37.609Z,1.47
2019-03-18T07:51:04.768Z,0.80
2019-03-18T07:53:31.837Z,1.33
2019-03-18T07:55:58.983Z,1.77
2019-03-18T07:58:26.074Z,1.60
2019-03-18T08:00:53.304Z,0.67
2019-03-18T08:03:20.312Z,1.60
2019-03-18T08:05:47.406Z,1.67
2019-03-18T08:08:14.513Z,1.57
2019-03-18T08:10:41.613Z,0.80
2019-03-18T08:13:08.720Z,1.07
2019-03-18T08:15:35.837Z,2.00
2019-03-18T08:18:02.924Z,1.10
2019-03-18T08:20:30.072Z,1.20
2019-03-18T08:22:57.168Z,0.97
2019-03-18T08:25:24.269Z,1.63
2019-03-18T08:27:51.374Z,1.80
2019-03-18T08:30:18.487Z,0.97
2019-03-18T08:32:45.576Z,1.77
2019-03-18T08:35:12.680Z,0.73
2019-03-18T08:37:39.773Z,1.33
2019-03-18T08:40:07.159Z,0.90
2019-03-18T08:42:34.273Z,0.80
2019-03-18T08:45:01.382Z,0.73
2019-03-18T08:47:28.463Z,0.87
2019-03-18T08:49:55.565Z,1.07
2019-03-18T08:52:22.656Z,1.17
2019-03-18T08:54:49.772Z,0.40
2019-03-18T08:57:16.864Z,0.80
2019-03-18T08:59:43.965Z,0.50
2019-03-18T09:02:11.058Z,1.10
2019-03-18T09:04:38.165Z,1.00
2019-03-18T09:07:05.285Z,0.77
2019-03-18T09:09:32.410Z,0.57
2019-03-18T09:11:59.504Z,1.97
2019-03-18T09:14:26.610Z,0.70
2019-03-18T09:16:53.701Z,1.30
2019-03-18T09:19:20.817Z,0.70
2019-03-18T09:21:47.920Z,1.90
2019-03-18T09:24:15.009Z,1.27
2019-03-18T09:26:42.125Z,1.13
2019-03-18T09:29:09.241Z,1.00
2019-03-18T09:31:36.320Z,0.70
2019-03-18T09:34:03.421Z,2.77
2019-03-18T09:36:30.530Z,1.90
2019-03-18T09:38:57.634Z,1.07
2019-03-18T09:41:24.715Z,1.07
2019-03-18T09:43:51.809Z,0.83
2019-03-18T09:46:18.952Z,0.50
2019-03-18T09:48:46.029Z,1.47
2019-03-18T09:51:13.140Z,0.70
2019-03-18T09:53:40.248Z,1.67
2019-03-18T09:56:07.354Z,0.70
2019-03-18T09:58:34.488Z,1.60
2019-03-18T10:01:01.600Z,2.17
2019-03-18T10:03:28.757Z,1.77
2019-03-18T10:05:55.861Z,1.77
2019-03-18T10:08:25.113Z,1.70
2019-03-18T10:10:50.128Z,1.63
2019-03-18T10:13:17.212Z,2.27
2019-03-18T10:15:44.321Z,0.97
2019-03-18T10:18:11.421Z,1.33
2019-03-18T10:20:38.521Z,0.87
2019-03-18T10:23:05.627Z,1.93
2019-03-18T10:25:32.747Z,0.90
2019-03-18T10:27:59.828Z,1.27
2019-03-18T10:30:26.935Z,1.67
2019-03-18T10:32:54.041Z,1.40
2019-03-18T10:35:21.143Z,1.90
2019-03-18T10:37:48.283Z,2.17
2019-03-18T10:40:15.384Z,1.60
2019-03-18T10:42:43.223Z,1.63
2019-03-18T10:45:10.336Z,1.30
2019-03-18T10:47:37.448Z,2.03
2019-03-18T10:50:05.500Z,1.57
2019-03-18T10:52:32.612Z,2.10
2019-03-18T10:54:59.708Z,2.27
2019-03-18T10:57:26.830Z,2.43
2019-03-18T10:59:53.953Z,2.23
2019-03-18T11:02:21.053Z,1.40
2019-03-18T11:04:48.201Z,3.57
2019-03-18T11:07:22.133Z,1.60
2019-03-18T11:09:49.226Z,2.60
2019-03-18T11:12:16.312Z,2.47
2019-03-18T11:14:43.413Z,1.80
2019-03-18T11:17:10.516Z,3.20
2019-03-18T11:19:37.609Z,3.60
2019-03-18T11:22:04.738Z,1.97
2019-03-18T11:24:32.357Z,4.03
2019-03-18T11:26:59.472Z,2.13
2019-03-18T11:29:26.572Z,1.83
2019-03-18T11:31:54.305Z,1.67
2019-03-18T11:34:22.567Z,2.83
2019-03-18T11:36:49.728Z,2.20
2019-03-18T11:39:16.873Z,2.30
2019-03-18T11:41:43.985Z,3.03
2019-03-18T11:44:11.088Z,2.70
2019-03-18T11:46:40.433Z,2.77
2019-03-18T11:49:05.325Z,3.83
2019-03-18T11:51:32.460Z,1.93
2019-03-18T11:53:59.553Z,4.93
2019-03-18T11:56:26.652Z,1.53
2019-03-18T11:58:53.785Z,3.50
2019-03-18T12:01:20.872Z,1.47
2019-03-18T12:03:47.956Z,4.70
2019-03-18T12:06:15.053Z,3.27
2019-03-18T12:08:42.151Z,2.47
2019-03-18T12:11:09.257Z,1.67
2019-03-18T12:13:36.361Z,1.63
2019-03-18T12:16:03.449Z,2.03
2019-03-18T12:18:30.534Z,2.73
2019-03-18T12:20:57.653Z,2.53
2019-03-18T12:23:24.724Z,2.43
2019-03-18T12:25:51.901Z,2.63
2019-03-18T12:28:18.980Z,2.50
2019-03-18T12:30:46.130Z,1.67
2019-03-18T12:33:13.237Z,2.07
2019-03-18T12:35:40.359Z,2.53
2019-03-18T12:38:07.476Z,2.73
2019-03-18T12:40:34.587Z,3.70
2019-03-18T12:43:01.705Z,3.40
2019-03-18T12:45:28.806Z,2.47
2019-03-18T12:47:55.918Z,3.30
2019-03-18T12:50:38.773Z,2.97
2019-03-18T12:52:50.203Z,2.37
2019-03-18T12:55:17.293Z,4.90
2019-03-18T12:57:44.469Z,2.23
2019-03-18T13:00:15.969Z,3.20
2019-03-18T13:02:43.070Z,2.70
2019-03-18T13:05:10.191Z,3.27
2019-03-18T13:07:37.269Z,2.93
2019-03-18T13:10:05.607Z,1.90
2019-03-18T13:12:32.729Z,3.73
2019-03-18T13:14:59.813Z,2.67
2019-03-18T13:17:26.912Z,3.20
2019-03-18T13:19:54.009Z,5.03
2019-03-18T13:22:21.093Z,1.70
2019-03-18T13:24:48.205Z,3.37
2019-03-18T13:27:15.301Z,2.17
2019-03-18T13:29:42.407Z,3.00
2019-03-18T13:32:09.505Z,1.97
2019-03-18T13:34:36.611Z,2.80
2019-03-18T13:37:03.741Z,4.03
2019-03-18T13:39:30.853Z,2.77
2019-03-18T13:41:57.954Z,1.90
2019-03-18T13:44:25.058Z,2.17
2019-03-18T13:46:52.158Z,3.37
2019-03-18T13:49:19.262Z,1.30
2019-03-18T13:51:46.363Z,2.30
2019-03-18T13:54:13.468Z,3.17
2019-03-18T13:56:40.569Z,3.47
2019-03-18T13:59:07.713Z,4.70
2019-03-18T14:01:34.828Z,2.13
2019-03-18T14:04:01.959Z,2.70
2019-03-18T14:06:29.061Z,2.03
2019-03-18T14:08:56.146Z,4.33
2019-03-18T14:11:23.249Z,3.60
2019-03-18T14:13:50.317Z,3.10
2019-03-18T14:16:17.429Z,5.03
2019-03-18T14:18:44.523Z,4.00
2019-03-18T14:21:11.617Z,4.83
2019-03-18T14:23:38.705Z,3.90
2019-03-18T14:26:05.808Z,2.83
2019-03-18T14:28:32.882Z,1.50
2019-03-18T14:30:59.980Z,3.07
2019-03-18T14:33:27.045Z,3.93
2019-03-18T14:35:54.183Z,4.57
2019-03-18T14:38:21.267Z,3.57
2019-03-18T14:40:48.345Z,3.17
2019-03-18T14:43:15.444Z,3.20
2019-03-18T14:45:42.537Z,4.07
2019-03-18T14:48:09.637Z,3.50
2019-03-18T14:50:36.741Z,3.87
2019-03-18T14:53:03.845Z,3.53
2019-03-18T14:55:30.940Z,3.73
2019-03-18T14:57:58.110Z,2.77
2019-03-18T15:00:25.225Z,2.83
2019-03-18T15:02:52.309Z,5.17
2019-03-18T15:05:19.481Z,4.30
2019-03-18T15:07:46.589Z,2.50
2019-03-18T15:10:13.681Z,1.70
2019-03-18T15:12:40.825Z,3.77
2019-03-18T15:15:09.512Z,2.20
2019-03-18T15:17:36.605Z,3.13
2019-03-18T15:20:04.013Z,4.87
2019-03-18T15:22:31.101Z,3.53
2019-03-18T15:24:58.203Z,4.03
2019-03-18T15:27:25.312Z,3.67
2019-03-18T15:29:52.431Z,3.20
2019-03-18T15:32:19.521Z,1.10
2019-03-18T15:34:46.634Z,2.77
2019-03-18T15:37:13.736Z,3.17
2019-03-18T15:39:40.858Z,4.73
2019-03-18T15:42:07.970Z,2.10
2019-03-18T15:44:35.065Z,3.50
2019-03-18T15:47:02.155Z,3.13
2019-03-18T15:49:29.258Z,5.07
2019-03-18T15:51:56.350Z,4.50
2019-03-18T15:54:23.477Z,2.17
2019-03-18T15:56:50.576Z,3.17
2019-03-18T15:59:17.701Z,2.70
2019-03-18T16:01:45.058Z,2.10
2019-03-18T16:04:11.966Z,2.00
2019-03-18T16:06:39.083Z,4.57
2019-03-18T16:09:06.953Z,4.60
2019-03-18T16:11:34.064Z,2.57
2019-03-18T16:14:01.164Z,2.83
2019-03-18T16:16:28.249Z,2.70
2019-03-18T16:18:55.328Z,2.40
2019-03-18T16:21:22.445Z,3.90
2019-03-18T16:23:49.528Z,5.23
2019-03-18T16:26:16.620Z,4.37
2019-03-18T16:28:43.713Z,3.93
2019-03-18T16:31:10.816Z,2.23
2019-03-18T16:33:37.912Z,2.70
2019-03-18T16:36:05.045Z,2.13
2019-03-18T16:38:32.159Z,1.87
2019-03-18T16:40:59.268Z,3.17
2019-03-18T16:43:26.349Z,5.33
2019-03-18T16:45:53.465Z,2.97
2019-03-18T16:48:20.537Z,3.83
2019-03-18T16:50:47.636Z,3.53
2019-03-18T16:53:14.722Z,5.67
2019-03-18T16:55:41.808Z,3.77
2019-03-18T16:58:08.894Z,3.00
2019-03-18T17:00:36.029Z,4.43
2019-03-18T17:03:03.154Z,2.23
2019-03-18T17:05:30.273Z,3.57
2019-03-18T17:07:57.398Z,3.27
2019-03-18T17:10:24.512Z,3.17
2019-03-18T17:12:51.617Z,2.57
2019-03-18T17:15:18.734Z,3.47
2019-03-18T17:17:45.852Z,3.37
2019-03-18T17:20:12.958Z,3.50
2019-03-18T17:22:48.939Z,3.10
2019-03-18T17:25:09.184Z,1.37
2019-03-18T17:27:36.302Z,1.67
2019-03-18T17:30:04.775Z,1.40
2019-03-18T17:32:31.932Z,0.97
2019-03-18T17:34:59.036Z,2.67
2019-03-18T17:37:26.138Z,1.93
2019-03-18T17:39:53.290Z,5.37
2019-03-18T17:42:20.369Z,5.20
2019-03-18T17:44:47.457Z,2.60
2019-03-18T17:47:14.553Z,4.33
2019-03-18T17:49:41.662Z,2.13
2019-03-18T17:52:08.770Z,2.30
2019-03-18T17:54:35.857Z,2.30
2019-03-18T17:57:07.574Z,2.17
2019-03-18T17:59:30.098Z,2.00
2019-03-18T18:01:57.189Z,2.07
2019-03-18T18:04:24.304Z,2.33
2019-03-18T18:06:51.409Z,2.37
2019-03-18T18:09:18.520Z,4.00
2019-03-18T18:11:45.609Z,4.33
2019-03-18T18:14:12.681Z,2.43
2019-03-18T18:16:39.837Z,1.17
2019-03-18T18:19:06.947Z,3.80
2019-03-18T18:21:34.045Z,1.90
2019-03-18T18:24:01.128Z,2.73
2019-03-18T18:26:28.237Z,2.20
2019-03-18T18:28:55.350Z,2.60
2019-03-18T18:31:22.453Z,2.93
2019-03-18T18:33:49.534Z,2.20
2019-03-18T18:36:16.616Z,1.13
2019-03-18T18:38:43.693Z,2.27
2019-03-18T18:41:10.773Z,0.80
2019-03-18T18:43:37.892Z,2.47
2019-03-18T18:46:05.009Z,2.47
2019-03-18T18:48:32.079Z,2.20
2019-03-18T18:50:59.224Z,3.03
2019-03-18T18:53:26.918Z,1.60
2019-03-18T18:55:53.445Z,3.03
2019-03-18T18:58:20.516Z,2.73
2019-03-18T19:00:47.609Z,3.53
2019-03-18T19:03:14.728Z,3.20
2019-03-18T19:05:41.860Z,1.90
2019-03-18T19:08:08.981Z,1.53
2019-03-18T19:10:36.074Z,2.33
2019-03-18T19:13:03.225Z,2.67
2019-03-18T19:15:30.441Z,2.13
2019-03-18T19:17:57.545Z,2.83
2019-03-18T19:20:24.621Z,2.43
2019-03-18T19:22:51.753Z,0.93
2019-03-18T19:25:18.849Z,2.10
2019-03-18T19:27:45.957Z,1.87
2019-03-18T19:30:15.019Z,2.07
2019-03-18T19:32:42.110Z,2.13
2019-03-18T19:35:09.212Z,1.90
2019-03-18T19:37:36.310Z,2.10
2019-03-18T19:40:04.141Z,2.43
2019-03-18T19:42:31.249Z,1.80
2019-03-18T19:44:58.357Z,2.57
2019-03-18T19:47:25.484Z,2.63
2019-03-18T19:49:52.577Z,3.10
2019-03-18T19:52:19.641Z,3.60
2019-03-18T19:54:46.737Z,2.60
2019-03-18T19:57:13.822Z,3.83
2019-03-18T19:59:40.917Z,2.30
2019-03-18T20:02:08.001Z,2.00
2019-03-18T20:04:35.123Z,3.23
2019-03-18T20:07:02.224Z,3.07
2019-03-18T20:09:29.384Z,2.57
2019-03-18T20:11:56.499Z,3.17
2019-03-18T20:14:23.601Z,2.30
2019-03-18T20:16:50.687Z,3.23
2019-03-18T20:19:17.837Z,1.60
2019-03-18T20:21:44.919Z,2.90
2019-03-18T20:24:11.996Z,1.90
2019-03-18T20:26:39.089Z,3.40
2019-03-18T20:29:06.175Z,4.67
2019-03-18T20:31:33.287Z,5.53
2019-03-18T20:34:00.361Z,3.07
2019-03-18T20:36:27.441Z,1.40
2019-03-18T20:38:54.556Z,2.23
2019-03-18T20:41:21.661Z,2.63
2019-03-18T20:43:48.780Z,3.83
2019-03-18T20:46:15.916Z,2.60
2019-03-18T20:48:42.984Z,1.73
2019-03-18T20:51:10.052Z,3.50
2019-03-18T20:53:37.147Z,2.67
2019-03-18T20:56:04.218Z,2.60
2019-03-18T20:58:31.301Z,2.90
2019-03-18T21:00:58.373Z,2.43
2019-03-18T21:03:25.481Z,3.23
2019-03-18T21:05:52.569Z,2.40
2019-03-18T21:08:19.676Z,2.93
2019-03-18T21:10:46.775Z,3.50
2019-03-18T21:13:13.873Z,1.87
2019-03-18T21:15:40.981Z,3.67
2019-03-18T21:18:08.117Z,2.63
2019-03-18T21:20:35.215Z,3.90
2019-03-18T21:23:02.293Z,2.50
2019-03-18T21:25:29.413Z,2.20
2019-03-18T21:27:56.508Z,2.17
2019-03-18T21:30:23.604Z,2.80
2019-03-18T21:32:50.728Z,2.87
2019-03-18T21:35:17.970Z,3.60
2019-03-18T21:37:45.079Z,3.53
2019-03-18T21:40:12.395Z,1.80
2019-03-18T21:42:39.492Z,4.13
2019-03-18T21:45:07.916Z,3.03
2019-03-18T21:47:35.012Z,4.23
2019-03-18T21:50:02.158Z,3.83
2019-03-18T21:52:29.219Z,2.67
2019-03-18T21:54:56.345Z,4.23
2019-03-18T21:57:23.441Z,3.20
2019-03-18T21:59:50.536Z,2.47
2019-03-18T22:02:17.667Z,2.90
2019-03-18T22:04:44.759Z,2.73
2019-03-18T22:07:11.844Z,2.43
2019-03-18T22:09:38.945Z,4.40
2019-03-18T22:12:06.021Z,2.27
2019-03-18T22:14:33.158Z,2.43
2019-03-18T22:17:00.309Z,3.67
2019-03-18T22:19:27.473Z,5.00
2019-03-18T22:21:54.540Z,4.27
2019-03-18T22:24:21.641Z,3.30
2019-03-18T22:26:48.713Z,3.30
2019-03-18T22:29:15.825Z,3.40
2019-03-18T22:31:42.938Z,3.80
2019-03-18T22:34:09.996Z,4.47
2019-03-18T22:36:37.106Z,3.63
2019-03-18T22:39:06.819Z,4.13
2019-03-18T22:41:33.934Z,5.20
2019-03-18T22:44:01.056Z,4.30
2019-03-18T22:46:28.125Z,4.53
2019-03-18T22:48:55.213Z,3.27
2019-03-18T22:51:22.302Z,1.90
2019-03-18T22:53:49.448Z,3.90
2019-03-18T22:56:16.536Z,3.43
2019-03-18T22:58:43.631Z,3.80
2019-03-18T23:01:13.357Z,3.40
2019-03-18T23:03:40.485Z,2.33
2019-03-18T23:06:07.609Z,2.67
2019-03-18T23:08:34.710Z,3.17
2019-03-18T23:11:01.817Z,3.47
2019-03-18T23:13:28.943Z,2.17
2019-03-18T23:15:56.021Z,2.33
2019-03-18T23:18:23.105Z,3.77
2019-03-18T23:20:50.208Z,3.17
2019-03-18T23:23:17.309Z,2.97
2019-03-18T23:25:44.434Z,3.50
2019-03-18T23:28:11.530Z,2.67
2019-03-18T23:30:38.617Z,2.33
2019-03-18T23:33:05.720Z,4.17
2019-03-18T23:35:32.808Z,3.33
2019-03-18T23:37:59.898Z,2.80
2019-03-18T23:40:26.985Z,2.27
2019-03-18T23:42:54.078Z,3.70
2019-03-18T23:45:21.177Z,3.60
2019-03-18T23:47:48.314Z,2.03
2019-03-18T23:50:15.426Z,4.47
2019-03-18T23:52:42.517Z,4.03
2019-03-18T23:55:18.379Z,3.17
2019-03-18T23:57:36.744Z,3.57
